Time;durP1;ratioP1;P1;durP2;ratioP2;P2;SDS_P1;SDS_P2;PMS_P1;PMS_P2;Temp;Humidity;BMP_temperature;BMP_pressure;BME280_temperature;BME280_humidity;BME280_pressure;Samples;Min_cycle;Max_cycle;Signal;HPM_P1;HPM_P2
2023/10/15 00:00:18;;;;;;;2.77;0.80;;;10.30;99.90;;;;;;4976087;28;20175;-73
2023/10/15 00:02:46;;;;;;;4.13;0.93;;;10.30;99.90;;;;;;4971055;28;20294;-75
2023/10/15 00:05:19;;;;;;;4.47;1.30;;;10.20;99.90;;;;;;4966528;28;20585;-77
2023/10/15 00:07:50;;;;;;;9.27;1.60;;;10.20;99.90;;;;;;4962732;28;20737;-78
2023/10/15 00:10:19;;;;;;;3.17;1.20;;;10.20;99.90;;;;;;4970506;28;20228;-78
2023/10/15 00:12:47;;;;;;;11.73;2.20;;;10.20;99.90;;;;;;4966254;28;20268;-77
2023/10/15 00:15:19;;;;;;;6.63;1.07;;;10.20;99.90;;;;;;4968185;28;20182;-77
2023/10/15 00:17:46;;;;;;;8.37;1.00;;;10.10;99.90;;;;;;4969264;28;20261;-72
2023/10/15 00:20:19;;;;;;;4.30;1.40;;;10.10;99.90;;;;;;4971008;28;20206;-75
2023/10/15 00:22:49;;;;;;;3.93;1.47;;;10.10;99.90;;;;;;4974952;28;20280;-75
2023/10/15 00:25:18;;;;;;;4.03;1.17;;;10.00;99.90;;;;;;4962508;28;20214;-75
2023/10/15 00:28:05;;;;;;;4.80;1.30;;;10.10;99.90;;;;;;4973678;28;20202;-75
2023/10/15 00:30:32;;;;;;;4.93;1.07;;;10.20;99.90;;;;;;4972683;28;20233;-75
2023/10/15 00:33:06;;;;;;;2.57;1.23;;;10.20;99.90;;;;;;4970708;28;20187;-72
2023/10/15 00:35:36;;;;;;;4.90;1.27;;;10.20;99.90;;;;;;4970136;28;20280;-74
2023/10/15 00:41:07;;;;;;;3.20;1.07;;;10.10;99.90;;;;;;4968695;28;20685;-73
2023/10/15 00:43:32;;;;;;;3.80;0.80;;;10.00;99.90;;;;;;4967507;28;20919;-73
2023/10/15 00:46:00;;;;;;;9.87;1.20;;;9.90;99.90;;;;;;4969298;28;20239;-71
2023/10/15 00:48:35;;;;;;;5.00;1.57;;;9.90;99.90;;;;;;4965142;28;20593;-73
2023/10/15 00:51:13;;;;;;;3.77;1.17;;;9.90;99.90;;;;;;4970146;28;20174;-74
2023/10/15 00:53:50;;;;;;;7.43;1.50;;;9.90;99.90;;;;;;4972662;28;20218;-75
2023/10/15 00:56:19;;;;;;;4.30;1.20;;;9.80;99.90;;;;;;4959197;28;20222;-74
2023/10/15 01:03:54;;;;;;;3.73;1.10;;;9.80;99.90;;;;;;4981834;28;20214;-74
2023/10/15 01:09:10;;;;;;;3.93;1.20;;;9.70;99.90;;;;;;4980580;28;20222;-74
2023/10/15 01:11:44;;;;;;;4.70;1.50;;;9.70;99.90;;;;;;4974300;28;20218;-75
2023/10/15 01:14:10;;;;;;;5.53;1.03;;;9.70;99.90;;;;;;4973288;28;20576;-72
2023/10/15 01:16:38;;;;;;;3.50;1.00;;;9.70;99.90;;;;;;4977411;28;20979;-75
2023/10/15 01:21:43;;;;;;;6.03;1.17;;;9.60;99.90;;;;;;4976524;28;20229;-75
2023/10/15 01:24:09;;;;;;;3.20;0.90;;;9.60;99.90;;;;;;4973673;28;20175;-74
2023/10/15 01:26:38;;;;;;;2.43;0.77;;;9.60;99.90;;;;;;4970050;28;20210;-76
2023/10/15 01:29:06;;;;;;;3.83;1.00;;;9.60;99.90;;;;;;4968740;28;20271;-74
2023/10/15 01:31:49;;;;;;;2.80;1.10;;;9.60;99.90;;;;;;4973014;28;20214;-75
2023/10/15 01:34:21;;;;;;;4.43;1.60;;;9.60;99.90;;;;;;4971903;28;20221;-75
2023/10/15 01:36:51;;;;;;;3.07;1.17;;;9.60;99.90;;;;;;4972260;28;20222;-72
2023/10/15 01:39:38;;;;;;;4.47;1.27;;;9.60;99.90;;;;;;4968618;28;20213;-71
2023/10/15 01:42:06;;;;;;;3.60;1.20;;;9.60;99.90;;;;;;4980238;28;20289;-73
2023/10/15 01:44:33;;;;;;;4.90;1.10;;;9.50;99.90;;;;;;4981708;28;20178;-75
2023/10/15 01:49:33;;;;;;;5.90;1.17;;;9.50;99.90;;;;;;4979439;28;20210;-73
2023/10/15 01:52:09;;;;;;;4.57;1.10;;;9.40;99.90;;;;;;4964601;28;20230;-72
2023/10/15 01:54:36;;;;;;;4.63;2.00;;;9.40;99.90;;;;;;4974829;28;20288;-74
2023/10/15 01:57:14;;;;;;;8.53;2.23;;;9.40;99.90;;;;;;4974804;28;20170;-73
2023/10/15 01:59:46;;;;;;;7.97;1.83;;;9.40;99.90;;;;;;4975381;28;20213;-74
2023/10/15 02:02:17;;;;;;;4.63;2.13;;;9.40;99.90;;;;;;4974289;28;20222;-73
2023/10/15 02:04:46;;;;;;;8.93;2.50;;;9.40;99.90;;;;;;4976166;28;20617;-74
2023/10/15 02:07:22;;;;;;;6.27;2.20;;;9.40;99.90;;;;;;4974163;28;20210;-74
2023/10/15 02:09:47;;;;;;;2.80;1.20;;;9.40;99.90;;;;;;4964555;28;20210;-73
2023/10/15 02:12:14;;;;;;;5.07;1.40;;;9.40;99.90;;;;;;4965103;28;20212;-75
2023/10/15 02:14:42;;;;;;;7.30;2.80;;;9.40;99.90;;;;;;4971538;28;20289;-74
2023/10/15 02:17:13;;;;;;;7.40;1.73;;;9.50;99.90;;;;;;4970959;28;20711;-73
2023/10/15 02:19:42;;;;;;;8.83;1.73;;;9.50;99.90;;;;;;4978060;28;20252;-74
2023/10/15 02:22:15;;;;;;;9.83;2.43;;;9.50;99.90;;;;;;4975667;28;20261;-74
2023/10/15 02:24:56;;;;;;;4.47;1.47;;;9.50;99.90;;;;;;4969522;28;21244;-74
2023/10/15 02:27:25;;;;;;;3.20;1.27;;;9.60;99.90;;;;;;4967098;28;20210;-74
2023/10/15 02:29:51;;;;;;;4.83;1.00;;;9.60;99.90;;;;;;4978724;28;20194;-74
2023/10/15 02:32:21;;;;;;;7.43;1.30;;;9.70;99.90;;;;;;4974750;28;20206;-74
2023/10/15 02:34:50;;;;;;;4.57;1.40;;;9.60;99.90;;;;;;4974387;28;20225;-74
2023/10/15 02:37:26;;;;;;;2.33;1.10;;;9.60;99.90;;;;;;4973552;28;20648;-73
2023/10/15 02:39:59;;;;;;;4.80;1.63;;;9.50;99.90;;;;;;4972304;28;20260;-73
2023/10/15 02:42:31;;;;;;;5.57;1.60;;;9.50;99.90;;;;;;4979494;28;20590;-74
2023/10/15 02:45:01;;;;;;;8.53;1.40;;;9.40;99.90;;;;;;4975188;28;20294;-74
2023/10/15 02:47:41;;;;;;;5.37;1.30;;;9.40;99.90;;;;;;4990617;28;20217;-74
2023/10/15 02:50:09;;;;;;;3.53;1.07;;;9.40;99.90;;;;;;4969611;28;20297;-73
2023/10/15 02:52:35;;;;;;;6.90;1.20;;;9.40;99.90;;;;;;4973795;28;20277;-73
2023/10/15 02:55:08;;;;;;;5.80;1.37;;;9.30;99.90;;;;;;4975115;28;20198;-73
2023/10/15 02:57:39;;;;;;;5.30;1.10;;;9.30;99.90;;;;;;4970222;28;20294;-72
2023/10/15 03:00:28;;;;;;;5.77;1.43;;;9.30;99.90;;;;;;4960504;28;20213;-72
2023/10/15 03:02:54;;;;;;;4.93;1.10;;;9.20;99.90;;;;;;4959850;28;20854;-72
2023/10/15 03:05:28;;;;;;;3.87;1.23;;;9.20;99.90;;;;;;4957337;28;20199;-71
2023/10/15 03:07:54;;;;;;;8.27;1.20;;;9.10;99.90;;;;;;4956600;28;20681;-71
2023/10/15 03:10:22;;;;;;;6.30;1.10;;;9.10;99.90;;;;;;4963805;28;20261;-69
2023/10/15 03:12:48;;;;;;;7.87;2.10;;;9.10;99.90;;;;;;4957905;28;20209;-72
2023/10/15 03:15:15;;;;;;;4.13;1.17;;;9.00;99.90;;;;;;4959752;28;20179;-73
2023/10/15 03:17:44;;;;;;;6.00;0.97;;;9.00;99.90;;;;;;4965940;28;20677;-74
2023/10/15 03:22:44;;;;;;;6.37;1.43;;;8.90;99.90;;;;;;4959648;28;20238;-72
2023/10/15 03:25:13;;;;;;;4.40;1.33;;;8.90;99.90;;;;;;4961953;28;20202;-72
2023/10/15 03:27:39;;;;;;;2.37;1.10;;;9.00;99.90;;;;;;4967720;28;20294;-72
2023/10/15 03:30:09;;;;;;;5.57;1.67;;;9.00;99.90;;;;;;4960921;28;20729;-72
2023/10/15 03:32:41;;;;;;;6.60;1.43;;;8.90;99.90;;;;;;4969662;28;20240;-72
2023/10/15 03:37:58;;;;;;;8.60;1.37;;;8.90;99.90;;;;;;4962813;28;20692;-72
2023/10/15 03:40:31;;;;;;;5.70;1.60;;;8.90;99.90;;;;;;4964392;28;20194;-73
2023/10/15 03:46:13;;;;;;;5.67;1.20;;;8.90;99.90;;;;;;5002540;28;20201;-72
2023/10/15 03:48:47;;;;;;;6.10;1.53;;;8.80;99.90;;;;;;4966195;28;20210;-72
2023/10/15 03:51:16;;;;;;;7.43;1.80;;;8.80;99.90;;;;;;4956731;28;20685;-69
2023/10/15 03:53:43;;;;;;;2.57;1.00;;;8.80;99.90;;;;;;4958431;28;20649;-70
2023/10/15 03:56:09;;;;;;;5.20;1.10;;;8.80;99.90;;;;;;4956895;28;20412;-70
2023/10/15 03:58:35;;;;;;;3.77;1.10;;;8.80;99.90;;;;;;4960484;28;20206;-70
2023/10/15 04:03:43;;;;;;;5.70;1.57;;;8.70;99.90;;;;;;4959174;28;20288;-69
2023/10/15 04:06:09;;;;;;;3.77;1.60;;;8.70;99.90;;;;;;4960895;28;20226;-69
2023/10/15 04:08:37;;;;;;;5.40;1.07;;;8.70;99.90;;;;;;4968506;28;20307;-69
2023/10/15 04:11:03;;;;;;;4.70;1.13;;;8.70;99.90;;;;;;4963248;28;20199;-70
2023/10/15 04:13:29;;;;;;;3.47;1.37;;;8.70;99.90;;;;;;4963029;28;20206;-69
2023/10/15 04:15:56;;;;;;;2.53;1.20;;;8.70;99.90;;;;;;4961956;28;20246;-70
2023/10/15 04:18:25;;;;;;;3.37;1.10;;;8.70;99.90;;;;;;4965091;28;20167;-70
2023/10/15 04:20:52;;;;;;;14.80;1.30;;;8.70;99.90;;;;;;4955035;28;20186;-70
2023/10/15 04:23:30;;;;;;;5.77;1.07;;;8.70;99.90;;;;;;4954822;28;20203;-70
2023/10/15 04:25:59;;;;;;;3.30;1.10;;;8.70;99.90;;;;;;4965792;28;20202;-70
2023/10/15 04:28:25;;;;;;;5.33;1.30;;;8.70;99.90;;;;;;4960389;28;20241;-70
2023/10/15 04:30:51;;;;;;;2.17;0.97;;;8.70;99.90;;;;;;4956403;28;20243;-70
2023/10/15 04:33:20;;;;;;;3.80;1.27;;;8.60;99.90;;;;;;4957529;28;20194;-70
2023/10/15 04:35:48;;;;;;;7.07;0.93;;;8.50;99.90;;;;;;4957744;28;20170;-70
2023/10/15 04:38:27;;;;;;;2.63;1.10;;;8.50;99.90;;;;;;4965105;28;20575;-69
2023/10/15 04:43:24;;;;;;;4.07;1.53;;;8.50;99.90;;;;;;4962027;28;20205;-70
2023/10/15 04:45:50;;;;;;;9.43;1.10;;;8.50;99.90;;;;;;4968117;28;20195;-69
2023/10/15 04:48:16;;;;;;;5.07;1.57;;;8.50;99.90;;;;;;4969353;28;20171;-69
2023/10/15 04:50:46;;;;;;;5.50;1.17;;;8.50;99.90;;;;;;4960968;28;20217;-69
2023/10/15 04:53:17;;;;;;;8.83;1.43;;;8.50;99.90;;;;;;4962262;28;20262;-70
2023/10/15 04:55:43;;;;;;;1.97;1.33;;;8.50;99.90;;;;;;4961367;28;20237;-70
2023/10/15 04:58:09;;;;;;;8.17;1.67;;;8.50;99.90;;;;;;4967250;28;20289;-70
2023/10/15 05:00:39;;;;;;;8.40;1.10;;;8.50;99.90;;;;;;4961446;28;20215;-70
2023/10/15 05:03:04;;;;;;;8.33;1.27;;;8.40;99.90;;;;;;4953424;28;20253;-70
2023/10/15 05:05:31;;;;;;;7.80;1.10;;;8.50;99.90;;;;;;4955673;28;20625;-71
2023/10/15 05:08:00;;;;;;;5.67;1.43;;;8.50;99.90;;;;;;4955168;28;20199;-70
2023/10/15 05:10:33;;;;;;;5.93;1.47;;;8.40;99.90;;;;;;4962823;28;20210;-70
2023/10/15 05:12:59;;;;;;;3.87;1.07;;;8.30;99.90;;;;;;4960418;28;20214;-70
2023/10/15 05:15:28;;;;;;;9.23;1.10;;;8.30;99.90;;;;;;4959525;28;20207;-70
2023/10/15 05:17:53;;;;;;;4.80;1.30;;;8.30;99.90;;;;;;4957434;28;20646;-70
2023/10/15 05:20:20;;;;;;;6.07;1.10;;;8.40;99.90;;;;;;4959204;28;20250;-70
2023/10/15 05:22:49;;;;;;;3.57;1.13;;;8.40;99.90;;;;;;4963226;28;20268;-70
2023/10/15 05:25:17;;;;;;;8.07;1.70;;;8.40;99.90;;;;;;4961453;28;20252;-70
2023/10/15 05:27:43;;;;;;;4.07;1.77;;;8.30;99.90;;;;;;4969665;28;20241;-73
2023/10/15 05:30:10;;;;;;;5.50;1.20;;;8.30;99.90;;;;;;4961228;28;20210;-72
2023/10/15 05:32:36;;;;;;;4.20;1.27;;;8.30;99.90;;;;;;4963921;28;20535;-73
2023/10/15 05:35:03;;;;;;;4.50;1.03;;;8.30;99.90;;;;;;4961863;28;20208;-73
2023/10/15 05:37:28;;;;;;;3.80;1.20;;;8.30;99.90;;;;;;4970003;28;20202;-73
2023/10/15 05:39:54;;;;;;;3.50;1.03;;;8.40;99.90;;;;;;4963955;28;20201;-72
2023/10/15 05:42:20;;;;;;;4.73;1.20;;;8.40;99.90;;;;;;4964113;28;20217;-73
2023/10/15 05:44:46;;;;;;;6.60;1.60;;;8.50;99.90;;;;;;4964943;28;20799;-73
2023/10/15 05:47:11;;;;;;;5.30;0.97;;;8.50;99.90;;;;;;4966987;28;20222;-73
2023/10/15 05:49:37;;;;;;;7.40;1.33;;;8.50;99.90;;;;;;4966201;28;20572;-73
2023/10/15 05:52:03;;;;;;;10.47;1.70;;;8.50;99.90;;;;;;4961489;28;20264;-73
2023/10/15 05:54:32;;;;;;;7.90;1.90;;;8.60;99.90;;;;;;4961115;28;20245;-74
2023/10/15 05:56:57;;;;;;;7.00;1.80;;;8.70;99.90;;;;;;4960323;28;20167;-73
2023/10/15 05:59:23;;;;;;;4.23;1.10;;;8.80;99.90;;;;;;4961288;28;20241;-73
2023/10/15 06:01:50;;;;;;;4.70;1.27;;;9.30;99.90;;;;;;4961887;28;20303;-76
2023/10/15 06:04:17;;;;;;;2.97;1.20;;;10.10;99.90;;;;;;4962193;28;20230;-75
2023/10/15 06:06:43;;;;;;;6.80;1.30;;;11.10;99.90;;;;;;4969088;28;20214;-75
2023/10/15 06:09:11;;;;;;;4.43;0.90;;;11.80;99.90;;;;;;4963927;28;20227;-74
2023/10/15 06:11:37;;;;;;;6.50;0.97;;;12.30;99.90;;;;;;4965309;28;20555;-76
2023/10/15 06:14:04;;;;;;;5.00;1.13;;;12.10;99.90;;;;;;4966334;28;20194;-74
2023/10/15 06:16:30;;;;;;;4.97;1.00;;;12.10;99.90;;;;;;4963037;28;20202;-74
2023/10/15 06:18:57;;;;;;;6.77;1.20;;;12.50;99.90;;;;;;4964624;28;20209;-75
2023/10/15 06:21:23;;;;;;;7.30;1.40;;;13.30;99.90;;;;;;4960324;28;20569;-74
2023/10/15 06:23:49;;;;;;;5.47;1.17;;;13.60;99.90;;;;;;4963408;28;20258;-73
2023/10/15 06:26:15;;;;;;;4.93;1.27;;;14.10;99.90;;;;;;4960079;28;20285;-75
2023/10/15 06:28:40;;;;;;;6.20;1.50;;;14.20;99.90;;;;;;4963252;28;20549;-76
2023/10/15 06:31:09;;;;;;;7.38;2.33;;;14.70;99.90;;;;;;4960516;28;20747;-73
2023/10/15 06:33:35;;;;;;;6.43;1.58;;;14.90;99.90;;;;;;4966770;28;20214;-74
2023/10/15 06:36:00;;;;;;;4.38;1.15;;;15.20;99.90;;;;;;4964182;28;20693;-73
2023/10/15 06:38:26;;;;;;;5.35;1.13;;;15.50;99.90;;;;;;4963847;28;20212;-72
2023/10/15 06:40:52;;;;;;;4.38;1.40;;;15.80;99.90;;;;;;4962253;28;20206;-73
2023/10/15 06:43:18;;;;;;;4.43;1.10;;;16.20;99.90;;;;;;4960864;28;20204;-73
2023/10/15 06:45:44;;;;;;;6.22;1.02;;;16.30;99.90;;;;;;4963444;28;20608;-73
2023/10/15 06:48:09;;;;;;;5.72;1.20;;;16.20;99.90;;;;;;4957749;28;20269;-74
2023/10/15 06:50:35;;;;;;;6.15;1.48;;;16.30;99.90;;;;;;4962169;28;20212;-72
2023/10/15 06:53:01;;;;;;;3.40;1.05;;;16.60;99.90;;;;;;4964380;28;20217;-73
2023/10/15 06:55:27;;;;;;;2.92;1.20;;;17.10;99.90;;;;;;4961143;28;20202;-71
2023/10/15 06:57:53;;;;;;;7.20;1.35;;;17.50;99.90;;;;;;4963517;28;20230;-72
2023/10/15 07:00:22;;;;;;;7.07;1.23;;;17.40;99.90;;;;;;4963503;28;20186;-73
2023/10/15 07:02:52;;;;;;;4.20;1.42;;;17.50;99.90;;;;;;4960966;28;20333;-74
2023/10/15 07:05:20;;;;;;;3.92;1.10;;;17.60;99.90;;;;;;4965469;28;20218;-75
2023/10/15 07:07:46;;;;;;;2.60;1.50;;;17.30;99.90;;;;;;4960445;28;20550;-73
2023/10/15 07:10:16;;;;;;;5.20;1.63;;;17.50;99.90;;;;;;4966282;28;20210;-73
2023/10/15 07:12:47;;;;;;;6.20;1.05;;;17.30;99.90;;;;;;4958730;28;20252;-74
2023/10/15 07:15:15;;;;;;;3.35;1.08;;;17.10;99.90;;;;;;4963307;28;20174;-75
2023/10/15 07:17:41;;;;;;;2.97;0.98;;;16.80;99.90;;;;;;4965608;28;20198;-72
2023/10/15 07:20:14;;;;;;;4.25;1.30;;;16.40;99.90;;;;;;4964183;28;20203;-75
2023/10/15 07:22:46;;;;;;;6.45;1.30;;;15.80;99.90;;;;;;4961681;28;20573;-74
2023/10/15 07:25:13;;;;;;;5.93;1.20;;;15.10;99.90;;;;;;4967498;28;20222;-75
2023/10/15 07:27:41;;;;;;;4.15;1.08;;;15.30;99.90;;;;;;4957857;28;20868;-71
2023/10/15 07:30:12;;;;;;;3.67;1.13;;;14.90;99.90;;;;;;4966016;28;20273;-73
2023/10/15 07:32:39;;;;;;;6.30;1.10;;;14.50;99.90;;;;;;4964628;28;20221;-73
2023/10/15 07:35:06;;;;;;;6.53;1.20;;;14.90;99.90;;;;;;4962140;28;20756;-73
2023/10/15 07:37:34;;;;;;;5.30;1.30;;;14.10;99.90;;;;;;4967360;28;20237;-74
2023/10/15 07:40:05;;;;;;;3.80;1.42;;;13.90;99.90;;;;;;4963995;28;20222;-76
2023/10/15 07:42:34;;;;;;;5.43;1.30;;;13.90;99.90;;;;;;4966623;28;20582;-74
2023/10/15 07:45:00;;;;;;;7.32;1.27;;;14.70;99.90;;;;;;4960928;28;20698;-72
2023/10/15 07:47:29;;;;;;;2.70;0.90;;;14.90;99.90;;;;;;4967152;28;20210;-73
2023/10/15 07:49:55;;;;;;;3.38;1.13;;;15.10;99.90;;;;;;4960455;28;20203;-73
2023/10/15 07:52:20;;;;;;;6.05;0.98;;;15.30;99.90;;;;;;4965008;28;20210;-75
2023/10/15 07:54:46;;;;;;;5.10;1.08;;;16.20;99.90;;;;;;4965806;28;20615;-74
2023/10/15 07:57:14;;;;;;;3.65;1.00;;;16.50;99.90;;;;;;4965447;28;20175;-73
2023/10/15 07:59:39;;;;;;;2.05;0.88;;;16.70;99.90;;;;;;4961350;28;20674;-74
2023/10/15 08:02:07;;;;;;;5.43;1.42;;;15.80;99.90;;;;;;4961859;28;20305;-74
2023/10/15 08:04:34;;;;;;;3.00;1.45;;;15.00;99.90;;;;;;4965964;28;20209;-74
2023/10/15 08:07:00;;;;;;;5.55;1.25;;;15.60;99.90;;;;;;4968882;28;20205;-75
2023/10/15 08:09:26;;;;;;;2.75;1.02;;;15.10;99.90;;;;;;4973590;28;20795;-74
2023/10/15 08:11:52;;;;;;;2.83;0.90;;;13.80;99.90;;;;;;4969648;28;20203;-76
2023/10/15 08:14:17;;;;;;;1.65;1.05;;;13.20;99.90;;;;;;4975833;28;20210;-75
2023/10/15 08:16:43;;;;;;;5.75;1.08;;;12.40;99.90;;;;;;4965815;28;20247;-74
2023/10/15 08:19:09;;;;;;;3.63;0.80;;;11.70;99.90;;;;;;4966342;28;20198;-74
2023/10/15 08:21:35;;;;;;;7.50;2.88;;;11.70;99.90;;;;;;4963445;28;20298;-74
2023/10/15 08:24:00;;;;;;;4.45;1.30;;;11.50;99.90;;;;;;4967600;28;20648;-74
2023/10/15 08:26:26;;;;;;;3.70;1.23;;;11.40;99.90;;;;;;4973168;28;20585;-74
2023/10/15 08:28:52;;;;;;;5.43;0.80;;;11.40;99.90;;;;;;4971649;28;20206;-74
2023/10/15 08:31:17;;;;;;;1.77;0.80;;;11.10;99.90;;;;;;4962321;28;20259;-74
2023/10/15 08:33:43;;;;;;;1.80;0.80;;;11.50;99.90;;;;;;4963984;28;20716;-73
2023/10/15 08:36:08;;;;;;;6.10;0.60;;;11.70;99.90;;;;;;4961744;28;20176;-73
2023/10/15 08:38:37;;;;;;;2.00;0.60;;;11.60;99.90;;;;;;4962255;28;20174;-73
2023/10/15 08:41:08;;;;;;;2.42;0.88;;;11.80;99.90;;;;;;4962864;28;20210;-73
2023/10/15 08:43:34;;;;;;;2.10;0.70;;;11.70;99.90;;;;;;4969993;28;20225;-71
2023/10/15 08:46:09;;;;;;;4.23;0.70;;;11.50;99.90;;;;;;4962489;28;20214;-73
2023/10/15 08:48:37;;;;;;;5.40;0.87;;;11.50;99.90;;;;;;4959083;28;20266;-73
2023/10/15 08:51:04;;;;;;;0.75;0.43;;;11.60;99.90;;;;;;4962318;28;20259;-73
2023/10/15 08:53:30;;;;;;;4.40;0.70;;;11.10;99.90;;;;;;4961701;28;20214;-74
2023/10/15 08:56:01;;;;;;;2.10;0.60;;;11.30;99.90;;;;;;4963247;28;20586;-74
2023/10/15 08:58:29;;;;;;;1.27;0.57;;;11.40;99.90;;;;;;4961737;28;20254;-73
2023/10/15 09:01:00;;;;;;;1.67;0.68;;;11.80;99.90;;;;;;4963247;28;20215;-72
2023/10/15 09:03:26;;;;;;;4.07;0.90;;;12.10;99.90;;;;;;4961459;28;20203;-73
2023/10/15 09:05:52;;;;;;;3.90;0.70;;;12.00;99.90;;;;;;4965361;28;20261;-75
2023/10/15 09:08:20;;;;;;;1.80;0.80;;;11.70;99.90;;;;;;4967488;28;20281;-73
2023/10/15 09:10:45;;;;;;;1.35;0.57;;;12.00;99.90;;;;;;4969231;28;20244;-75
2023/10/15 09:13:15;;;;;;;3.35;0.85;;;12.40;99.90;;;;;;4961713;28;20274;-73
2023/10/15 09:15:43;;;;;;;5.03;0.98;;;12.50;99.90;;;;;;4965227;28;20212;-73
2023/10/15 09:18:11;;;;;;;4.10;0.90;;;12.60;99.90;;;;;;4968483;28;20174;-73
2023/10/15 09:20:42;;;;;;;2.38;0.77;;;12.20;99.90;;;;;;4971165;28;20182;-70
2023/10/15 09:23:09;;;;;;;0.60;0.43;;;11.90;99.90;;;;;;4960520;28;20203;-72
2023/10/15 09:25:36;;;;;;;2.53;0.50;;;11.80;99.90;;;;;;4964622;28;20263;-72
2023/10/15 09:28:01;;;;;;;2.30;1.30;;;11.60;99.90;;;;;;4961049;28;20198;-72
2023/10/15 09:30:30;;;;;;;1.90;0.70;;;11.40;99.90;;;;;;4964955;28;20221;-72
2023/10/15 09:32:57;;;;;;;3.97;1.23;;;11.40;99.90;;;;;;4962199;28;20213;-71
2023/10/15 09:35:23;;;;;;;4.27;0.90;;;11.30;99.90;;;;;;4961847;28;20664;-72
2023/10/15 09:37:49;;;;;;;4.17;0.70;;;11.40;99.90;;;;;;4963024;28;20286;-73
2023/10/15 09:40:22;;;;;;;2.63;0.80;;;11.30;99.90;;;;;;4966763;28;20289;-72
2023/10/15 09:42:53;;;;;;;2.07;0.87;;;11.40;99.90;;;;;;4961952;28;20213;-72
2023/10/15 09:45:23;;;;;;;1.70;0.60;;;11.20;99.90;;;;;;4961318;28;20692;-72
2023/10/15 09:47:52;;;;;;;2.37;0.80;;;11.10;99.90;;;;;;4964181;28;20186;-71
2023/10/15 09:50:24;;;;;;;2.20;0.80;;;11.20;99.90;;;;;;4961151;28;20693;-72
2023/10/15 09:53:00;;;;;;;1.60;0.40;;;11.30;99.90;;;;;;4961954;28;20210;-72
2023/10/15 09:55:28;;;;;;;0.60;0.60;;;11.20;99.90;;;;;;4961831;28;20199;-72
2023/10/15 09:57:56;;;;;;;4.10;0.50;;;10.90;99.90;;;;;;4962517;28;20718;-71
2023/10/15 10:00:46;;;;;;;1.40;0.60;;;11.10;99.90;;;;;;4961615;28;20642;-69
2023/10/15 10:03:14;;;;;;;0.87;0.40;;;11.00;99.90;;;;;;4960253;28;20226;-72
2023/10/15 10:05:56;;;;;;;0.80;0.40;;;11.10;99.90;;;;;;4960918;28;20236;-72
2023/10/15 10:08:50;;;;;;;1.20;0.60;;;11.00;99.90;;;;;;4964693;28;20198;-71
2023/10/15 10:11:34;;;;;;;2.27;0.70;;;11.10;99.90;;;;;;4964422;28;20234;-71
2023/10/15 10:14:23;;;;;;;2.40;0.80;;;11.40;99.90;;;;;;4962060;28;20202;-71
2023/10/15 10:16:49;;;;;;;2.63;0.50;;;11.50;99.90;;;;;;4962251;28;20207;-72
2023/10/15 10:19:17;;;;;;;4.53;0.50;;;11.50;99.90;;;;;;4972847;28;20285;-73
2023/10/15 10:21:46;;;;;;;1.30;0.50;;;11.40;99.90;;;;;;4963501;28;20274;-73
2023/10/15 10:24:12;;;;;;;0.70;0.37;;;11.50;99.90;;;;;;4961721;28;20170;-74
2023/10/15 10:26:42;;;;;;;0.83;0.50;;;11.60;99.90;;;;;;4960943;28;20182;-74
2023/10/15 10:29:11;;;;;;;1.60;0.47;;;11.50;99.90;;;;;;4964116;28;20230;-73
2023/10/15 10:31:39;;;;;;;2.07;0.80;;;11.20;99.90;;;;;;4958282;28;20222;-74
2023/10/15 10:34:05;;;;;;;1.57;0.50;;;11.30;99.90;;;;;;4965528;28;20582;-73
2023/10/15 10:36:37;;;;;;;3.70;0.70;;;11.70;99.90;;;;;;4969117;28;20209;-74
2023/10/15 10:39:13;;;;;;;2.73;0.73;;;12.10;99.90;;;;;;4963931;28;20727;-74
2023/10/15 10:41:44;;;;;;;1.60;0.73;;;12.30;99.90;;;;;;4964524;28;20194;-75
2023/10/15 10:44:30;;;;;;;1.75;0.60;;;12.20;99.90;;;;;;4978984;28;20206;-73
2023/10/15 10:46:56;;;;;;;3.58;0.90;;;12.00;99.90;;;;;;4978717;28;20210;-73
2023/10/15 10:49:39;;;;;;;5.23;0.80;;;11.80;99.90;;;;;;4965925;28;20218;-73
2023/10/15 10:52:15;;;;;;;3.30;0.40;;;11.80;99.90;;;;;;4964998;28;20226;-73
2023/10/15 10:54:41;;;;;;;1.37;0.53;;;11.70;99.90;;;;;;4977599;28;20208;-73
2023/10/15 10:57:07;;;;;;;2.47;1.00;;;11.60;99.90;;;;;;4962311;28;20175;-74
2023/10/15 10:59:35;;;;;;;2.53;0.50;;;11.40;99.90;;;;;;4969813;28;20174;-75
2023/10/15 11:02:00;;;;;;;2.73;0.50;;;11.40;99.90;;;;;;4964598;28;20292;-76
2023/10/15 11:04:26;;;;;;;3.60;0.70;;;11.50;99.90;;;;;;4966478;28;20218;-74
2023/10/15 11:06:52;;;;;;;0.87;0.47;;;11.30;99.90;;;;;;4967764;28;20233;-74
2023/10/15 11:09:22;;;;;;;2.17;0.60;;;11.50;99.90;;;;;;4971455;28;20664;-74
2023/10/15 11:11:55;;;;;;;1.70;0.73;;;11.70;99.90;;;;;;4969777;28;20202;-72
2023/10/15 11:14:23;;;;;;;1.27;0.47;;;12.00;99.90;;;;;;4965670;28;20206;-73
2023/10/15 11:16:54;;;;;;;3.20;0.50;;;12.10;99.90;;;;;;4971800;28;20233;-74
2023/10/15 11:19:25;;;;;;;1.25;0.40;;;12.40;99.90;;;;;;4967202;28;20219;-74
2023/10/15 11:21:52;;;;;;;2.30;0.60;;;12.60;99.90;;;;;;4960755;28;20602;-75
2023/10/15 11:24:19;;;;;;;1.00;0.32;;;12.40;99.90;;;;;;4972341;28;20198;-74
2023/10/15 11:26:45;;;;;;;1.58;0.73;;;12.20;99.90;;;;;;4968221;28;20185;-75
2023/10/15 11:29:22;;;;;;;4.10;0.88;;;12.10;99.90;;;;;;4968144;28;20292;-73
2023/10/15 11:31:49;;;;;;;4.07;0.90;;;11.90;99.90;;;;;;4967838;28;20273;-74
2023/10/15 11:34:19;;;;;;;2.40;0.50;;;11.70;99.90;;;;;;4965473;28;20210;-73
2023/10/15 11:36:48;;;;;;;1.40;0.50;;;11.70;99.90;;;;;;4971494;28;20209;-74
2023/10/15 11:39:18;;;;;;;3.40;1.03;;;11.50;99.90;;;;;;4973275;28;20182;-72
2023/10/15 11:41:56;;;;;;;1.10;0.70;;;11.40;99.90;;;;;;4967148;28;20199;-74
2023/10/15 11:44:26;;;;;;;2.37;0.63;;;11.80;99.90;;;;;;4970643;28;20206;-73
2023/10/15 11:46:55;;;;;;;1.03;0.70;;;11.90;99.90;;;;;;4968694;28;20293;-73
2023/10/15 11:49:22;;;;;;;1.45;0.65;;;12.00;99.90;;;;;;4967854;28;20222;-74
2023/10/15 11:51:49;;;;;;;1.97;0.80;;;12.00;99.90;;;;;;4968154;28;20261;-73
2023/10/15 11:54:16;;;;;;;2.80;0.77;;;12.10;99.90;;;;;;4969447;28;20194;-73
2023/10/15 11:56:48;;;;;;;3.17;1.73;;;12.00;99.90;;;;;;4963920;28;20222;-74
2023/10/15 11:59:13;;;;;;;0.80;0.73;;;12.00;99.90;;;;;;4964021;28;20218;-73
2023/10/15 12:01:39;;;;;;;2.23;0.53;;;11.90;99.90;;;;;;4965171;28;20230;-74
2023/10/15 12:04:07;;;;;;;2.50;1.00;;;11.90;99.90;;;;;;4966447;28;20218;-74
2023/10/15 12:06:33;;;;;;;2.20;0.60;;;12.00;99.90;;;;;;4968541;28;20219;-74
2023/10/15 12:08:59;;;;;;;1.87;0.60;;;11.90;99.90;;;;;;4963477;28;20226;-74
2023/10/15 12:11:28;;;;;;;1.03;0.50;;;11.80;99.90;;;;;;4968087;28;20202;-75
2023/10/15 12:13:54;;;;;;;0.30;0.30;;;11.60;99.90;;;;;;4967768;28;20214;-72
2023/10/15 12:16:19;;;;;;;3.10;0.50;;;11.60;99.90;;;;;;4965810;28;20202;-75
2023/10/15 12:18:45;;;;;;;0.77;0.50;;;11.60;99.90;;;;;;4963847;28;20222;-72
2023/10/15 12:21:11;;;;;;;1.17;0.70;;;11.70;99.90;;;;;;4961627;28;20657;-74
2023/10/15 12:23:36;;;;;;;1.30;0.50;;;11.70;99.90;;;;;;4966341;28;20329;-74
2023/10/15 12:26:07;;;;;;;1.60;0.43;;;11.80;99.90;;;;;;4965713;28;20265;-74
2023/10/15 12:28:38;;;;;;;1.27;0.60;;;11.90;99.90;;;;;;4962424;28;20239;-73
2023/10/15 12:31:06;;;;;;;0.83;0.30;;;12.10;99.90;;;;;;4968645;28;20222;-74
2023/10/15 12:33:33;;;;;;;1.63;0.50;;;12.20;99.90;;;;;;4959262;28;20214;-73
2023/10/15 12:35:59;;;;;;;3.73;0.70;;;12.30;99.90;;;;;;4967190;28;20187;-74
2023/10/15 12:38:28;;;;;;;0.80;0.30;;;12.40;99.90;;;;;;4968328;28;20290;-74
2023/10/15 12:40:55;;;;;;;2.50;0.73;;;12.40;99.90;;;;;;4967007;28;20302;-74
2023/10/15 12:43:21;;;;;;;1.60;0.40;;;12.30;99.90;;;;;;4967678;28;20689;-75
2023/10/15 12:45:52;;;;;;;0.97;0.50;;;12.20;99.90;;;;;;4968658;28;20577;-75
2023/10/15 12:48:19;;;;;;;1.23;0.60;;;12.20;99.90;;;;;;4966006;28;20241;-77
2023/10/15 12:50:46;;;;;;;2.00;0.60;;;12.20;99.90;;;;;;4967484;28;20237;-76
2023/10/15 12:53:12;;;;;;;0.63;0.23;;;12.30;99.90;;;;;;4967971;28;20241;-76
2023/10/15 12:55:38;;;;;;;0.70;0.70;;;12.10;99.90;;;;;;4967905;28;20218;-77
2023/10/15 12:58:04;;;;;;;5.43;2.00;;;12.00;99.90;;;;;;4957364;28;20322;-76
2023/10/15 13:00:32;;;;;;;2.63;0.80;;;12.00;99.90;;;;;;4960552;28;20737;-77
2023/10/15 13:02:58;;;;;;;1.30;0.67;;;11.90;99.90;;;;;;4965560;28;20847;-79
2023/10/15 13:05:25;;;;;;;0.80;0.40;;;11.80;99.90;;;;;;4962080;28;20207;-77
2023/10/15 13:07:53;;;;;;;3.47;0.40;;;11.60;99.90;;;;;;4965878;28;20587;-76
2023/10/15 13:10:20;;;;;;;1.20;0.47;;;11.60;99.90;;;;;;4968811;28;20254;-77
2023/10/15 13:12:51;;;;;;;1.53;1.07;;;11.60;99.90;;;;;;4962676;28;20227;-76
2023/10/15 13:15:18;;;;;;;1.17;0.73;;;11.70;99.90;;;;;;4968121;28;20257;-76
2023/10/15 13:17:47;;;;;;;1.63;0.57;;;11.80;99.90;;;;;;4957442;28;20189;-75
2023/10/15 13:20:14;;;;;;;0.93;0.40;;;11.90;99.90;;;;;;4964563;28;20293;-75
2023/10/15 13:22:40;;;;;;;1.33;0.50;;;11.90;99.90;;;;;;4963819;28;20701;-74
2023/10/15 13:25:13;;;;;;;0.30;0.27;;;11.90;99.90;;;;;;4962217;28;20330;-74
2023/10/15 13:27:38;;;;;;;1.33;0.27;;;12.10;99.90;;;;;;4961637;28;20213;-71